createdAt,value
2023-02-25T00:02:03.125Z,74.70
2023-02-25T00:04:32.532Z,75.03
2023-02-25T00:07:20.106Z,74.08
2023-02-25T00:09:47.886Z,76.63
2023-02-25T00:12:15.592Z,77.65
2023-02-25T00:14:43.486Z,76.90
2023-02-25T00:17:11.498Z,77.07
2023-02-25T00:19:39.825Z,78.25
2023-02-25T00:22:07.580Z,79.60
2023-02-25T00:24:36.504Z,80.92
2023-02-25T00:27:04.442Z,81.77
2023-02-25T00:29:32.276Z,82.83
2023-02-25T00:32:00.245Z,83.10
2023-02-25T00:34:32.863Z,82.43
2023-02-25T00:37:00.664Z,82.45
2023-02-25T00:39:42.181Z,82.71
2023-02-25T00:42:10.437Z,83.16
2023-02-25T00:44:38.427Z,83.21
2023-02-25T00:47:07.134Z,83.17
2023-02-25T00:49:34.861Z,84.30
2023-02-25T00:52:03.067Z,85.54
2023-02-25T00:54:30.899Z,85.75
2023-02-25T00:56:59.013Z,84.29
2023-02-25T00:59:26.736Z,82.98
2023-02-25T01:01:54.514Z,84.26
2023-02-25T01:04:22.406Z,84.77
2023-02-25T01:06:51.023Z,85.69
2023-02-25T01:09:18.892Z,84.55
2023-02-25T01:11:47.549Z,84.01
2023-02-25T01:14:23.315Z,83.84
2023-02-25T01:16:51.517Z,84.80
2023-02-25T01:19:24.749Z,84.76
2023-02-25T01:21:54.319Z,85.27
2023-02-25T01:24:24.414Z,85.55
2023-02-25T01:26:56.732Z,84.89
2023-02-25T01:29:26.842Z,86.30
2023-02-25T01:32:14.294Z,86.44
2023-02-25T01:34:43.524Z,87.00
2023-02-25T01:37:12.029Z,86.44
2023-02-25T01:39:40.729Z,85.41
2023-02-25T01:42:14.609Z,85.18
2023-02-25T01:45:28.418Z,86.24
2023-02-25T01:48:07.324Z,88.15
2023-02-25T01:50:48.402Z,87.54
2023-02-25T01:53:19.907Z,87.18
2023-02-25T01:55:47.601Z,88.20
2023-02-25T01:58:15.812Z,87.81
2023-02-25T02:00:44.493Z,87.69
2023-02-25T02:03:19.087Z,87.83
2023-02-25T02:06:05.522Z,88.01
2023-02-25T02:08:33.424Z,88.04
2023-02-25T02:11:02.817Z,87.91
2023-02-25T02:13:33.640Z,88.12
2023-02-25T02:16:20.424Z,88.25
2023-02-25T02:18:53.852Z,87.12
2023-02-25T02:21:39.589Z,87.86
2023-02-25T02:24:28.571Z,88.54
2023-02-25T02:27:00.887Z,88.63
2023-02-25T02:29:56.503Z,87.79
2023-02-25T02:32:37.118Z,87.51
2023-02-25T02:35:23.740Z,88.02
2023-02-25T02:38:14.850Z,88.13
2023-02-25T02:41:07.105Z,89.17
2023-02-25T02:44:11.098Z,88.29
2023-02-25T02:46:48.064Z,87.76
2023-02-25T02:49:22.096Z,88.81
2023-02-25T02:51:58.994Z,89.61
2023-02-25T02:54:28.648Z,88.50
2023-02-25T02:56:57.419Z,87.96
2023-02-25T02:59:27.950Z,87.27
2023-02-25T03:02:14.745Z,87.58
2023-02-25T03:04:43.449Z,87.77
2023-02-25T03:07:11.626Z,88.53
2023-02-25T03:09:41.110Z,90.83
2023-02-25T03:12:09.879Z,89.25
2023-02-25T03:14:39.592Z,89.22
2023-02-25T03:17:13.458Z,89.04
2023-02-25T03:19:47.533Z,88.48
2023-02-25T03:22:29.375Z,88.59
2023-02-25T03:25:20.676Z,88.72
2023-02-25T03:27:54.334Z,88.17
2023-02-25T03:30:55.500Z,88.50
2023-02-25T03:33:48.635Z,87.50
2023-02-25T03:36:27.568Z,88.60
2023-02-25T03:38:57.571Z,89.63
2023-02-25T03:41:30.041Z,88.82
2023-02-25T03:43:58.313Z,90.56
2023-02-25T03:46:26.213Z,90.70
2023-02-25T03:48:54.765Z,90.21
2023-02-25T03:51:25.697Z,90.40
2023-02-25T03:53:53.703Z,90.36
2023-02-25T03:56:27.055Z,90.64
2023-02-25T03:58:55.027Z,90.10
2023-02-25T04:01:26.928Z,89.57
2023-02-25T04:03:54.725Z,88.87
2023-02-25T04:06:25.694Z,90.10
2023-02-25T04:08:54.913Z,89.98
2023-02-25T04:11:23.402Z,89.44
2023-02-25T04:13:51.184Z,89.80
2023-02-25T04:16:19.296Z,89.27
2023-02-25T04:18:48.849Z,90.03
2023-02-25T04:21:35.550Z,90.03
2023-02-25T04:24:05.803Z,89.51
2023-02-25T04:26:34.552Z,89.82
2023-02-25T04:29:04.121Z,89.67
2023-02-25T04:31:35.084Z,89.43
2023-02-25T04:34:03.328Z,90.35
2023-02-25T04:36:33.904Z,90.38
2023-02-25T04:39:03.663Z,90.97
2023-02-25T04:41:33.637Z,91.32
2023-02-25T04:44:04.265Z,90.78
2023-02-25T04:46:34.054Z,90.81
2023-02-25T04:49:02.077Z,91.31
2023-02-25T04:51:29.992Z,90.30
2023-02-25T04:53:58.136Z,89.78
2023-02-25T04:56:26.186Z,90.93
2023-02-25T04:58:57.602Z,90.52
2023-02-25T05:01:25.428Z,89.95
2023-02-25T05:03:57.288Z,90.07
2023-02-25T05:06:25.724Z,90.57
2023-02-25T05:08:59.011Z,90.47
2023-02-25T05:11:27.702Z,89.78
2023-02-25T05:13:58.693Z,89.93
2023-02-25T05:16:27.767Z,90.91
2023-02-25T05:18:56.263Z,90.19
2023-02-25T05:21:26.331Z,90.93
2023-02-25T05:23:54.579Z,89.38
2023-02-25T05:26:23.766Z,90.73
2023-02-25T05:28:53.522Z,91.00
2023-02-25T05:31:21.613Z,92.15
2023-02-25T05:33:50.147Z,92.67
2023-02-25T05:36:18.302Z,92.18
2023-02-25T05:38:58.030Z,92.05
2023-02-25T05:41:26.312Z,92.61
2023-02-25T05:43:54.224Z,92.41
2023-02-25T05:46:22.729Z,92.69
2023-02-25T05:48:50.966Z,92.04
2023-02-25T05:51:19.853Z,91.42
2023-02-25T05:53:49.351Z,91.13
2023-02-25T05:56:19.168Z,90.69
2023-02-25T05:58:48.568Z,90.56
2023-02-25T06:01:18.305Z,90.96
2023-02-25T06:03:47.381Z,90.49
2023-02-25T06:06:16.710Z,89.98
2023-02-25T06:08:46.479Z,89.69
2023-02-25T06:11:19.221Z,89.59
2023-02-25T06:13:51.193Z,88.82
2023-02-25T06:16:21.849Z,89.28
2023-02-25T06:18:51.694Z,88.76
2023-02-25T06:21:19.908Z,88.47
2023-02-25T06:23:50.518Z,88.61
2023-02-25T06:26:23.656Z,87.53
2023-02-25T06:28:51.586Z,88.71
2023-02-25T06:31:19.998Z,87.95
2023-02-25T06:33:48.029Z,87.67
2023-02-25T06:36:15.947Z,88.21
2023-02-25T06:38:46.244Z,88.12
2023-02-25T06:41:16.753Z,87.90
2023-02-25T06:43:53.026Z,87.74
2023-02-25T06:46:23.427Z,88.65
2023-02-25T06:48:53.370Z,87.61
2023-02-25T06:51:22.403Z,87.17
2023-02-25T06:53:51.251Z,87.81
2023-02-25T06:56:20.574Z,87.88
2023-02-25T06:58:48.326Z,86.55
2023-02-25T07:01:17.525Z,87.10
2023-02-25T07:03:45.937Z,87.55
2023-02-25T07:06:16.698Z,85.89
2023-02-25T07:08:45.811Z,84.46
2023-02-25T07:11:22.133Z,85.99
2023-02-25T07:13:53.434Z,84.28
2023-02-25T07:16:21.513Z,84.77
2023-02-25T07:18:51.170Z,83.79
2023-02-25T07:21:19.346Z,83.23
2023-02-25T07:23:47.081Z,82.58
2023-02-25T07:26:15.011Z,83.23
2023-02-25T07:28:43.032Z,82.98
2023-02-25T07:31:12.058Z,82.53
2023-02-25T07:33:45.518Z,82.38
2023-02-25T07:36:13.255Z,83.19
2023-02-25T07:38:41.211Z,82.89
2023-02-25T07:41:13.142Z,81.84
2023-02-25T07:43:41.390Z,83.10
2023-02-25T07:46:10.721Z,82.54
2023-02-25T07:48:40.038Z,82.98
2023-02-25T07:51:13.526Z,82.25
2023-02-25T07:53:41.300Z,82.13
2023-02-25T07:56:09.880Z,81.74
2023-02-25T07:58:39.235Z,80.87
2023-02-25T08:01:16.872Z,80.97
2023-02-25T08:03:48.129Z,80.92
2023-02-25T08:06:16.022Z,81.30
2023-02-25T08:08:43.793Z,81.84
2023-02-25T08:11:12.412Z,80.49
2023-02-25T08:13:44.445Z,80.41
2023-02-25T08:16:14.413Z,80.79
2023-02-25T08:18:45.682Z,80.40
2023-02-25T08:21:14.795Z,79.44
2023-02-25T08:23:42.520Z,80.06
2023-02-25T08:26:10.579Z,79.38
2023-02-25T08:28:39.801Z,78.48
2023-02-25T08:31:11.844Z,78.34
2023-02-25T08:33:41.087Z,77.94
2023-02-25T08:36:11.390Z,77.84
2023-02-25T08:38:39.580Z,77.57
2023-02-25T08:41:08.837Z,77.58
2023-02-25T08:43:37.461Z,77.89
2023-02-25T08:46:06.881Z,78.17
2023-02-25T08:48:35.604Z,77.83
2023-02-25T08:51:08.758Z,76.90
2023-02-25T08:53:41.500Z,76.88
2023-02-25T08:56:11.256Z,76.73
2023-02-25T08:58:39.674Z,76.74
2023-02-25T09:01:14.213Z,76.73
2023-02-25T09:04:03.548Z,77.46
2023-02-25T09:06:34.157Z,76.72
2023-02-25T09:09:02.321Z,76.06
2023-02-25T09:11:31.136Z,77.57
2023-02-25T09:13:58.896Z,76.93
2023-02-25T09:16:28.704Z,76.72
2023-02-25T09:18:56.623Z,75.79
2023-02-25T09:21:24.995Z,75.39
2023-02-25T09:23:53.057Z,75.46
2023-02-25T09:26:22.573Z,75.56
2023-02-25T09:28:52.003Z,74.83
2023-02-25T09:31:19.918Z,75.28
2023-02-25T09:33:48.189Z,74.60
2023-02-25T09:36:19.610Z,74.22
2023-02-25T09:38:48.192Z,73.64
2023-02-25T09:41:57.637Z,72.67
2023-02-25T09:44:28.969Z,72.58
2023-02-25T09:46:57.893Z,74.29
2023-02-25T09:49:42.131Z,74.54
2023-02-25T09:52:28.846Z,73.29
2023-02-25T09:55:04.032Z,73.94
2023-02-25T09:57:37.536Z,74.52
2023-02-25T10:00:19.561Z,73.63
2023-02-25T10:03:07.242Z,73.07
2023-02-25T10:05:45.243Z,74.26
2023-02-25T10:08:33.452Z,73.32
2023-02-25T10:11:07.921Z,74.87
2023-02-25T10:13:54.455Z,74.59
2023-02-25T10:16:27.092Z,74.15
2023-02-25T10:19:01.815Z,74.04
2023-02-25T10:22:10.034Z,74.71
2023-02-25T10:24:41.723Z,74.44
2023-02-25T10:27:29.850Z,73.17
2023-02-25T10:30:08.914Z,74.36
2023-02-25T10:32:37.047Z,74.40
2023-02-25T10:35:25.608Z,73.79
2023-02-25T10:37:56.469Z,73.67
2023-02-25T10:40:29.404Z,72.76
2023-02-25T10:43:03.209Z,72.53
2023-02-25T10:45:35.396Z,72.92
2023-02-25T10:48:16.830Z,72.95
2023-02-25T10:51:12.376Z,72.92
2023-02-25T10:53:41.184Z,72.34
2023-02-25T10:56:11.861Z,72.58
2023-02-25T10:58:47.862Z,72.55
2023-02-25T11:01:21.143Z,72.58
2023-02-25T11:04:00.578Z,71.67
2023-02-25T11:06:36.473Z,72.49
2023-02-25T11:09:24.710Z,72.77
2023-02-25T11:12:02.238Z,72.51
2023-02-25T11:14:34.620Z,72.11
2023-02-25T11:17:14.860Z,71.82
2023-02-25T11:20:06.273Z,71.02
2023-02-25T11:22:37.865Z,72.00
2023-02-25T11:25:08.515Z,71.63
2023-02-25T11:27:40.104Z,72.40
2023-02-25T11:30:18.899Z,72.23
2023-02-25T11:32:56.525Z,72.53
2023-02-25T11:35:31.644Z,73.50
2023-02-25T11:37:59.790Z,72.96
2023-02-25T11:40:34.437Z,72.04
2023-02-25T11:43:06.232Z,73.53
2023-02-25T11:45:35.479Z,71.72
2023-02-25T11:48:04.515Z,72.50
2023-02-25T11:50:56.717Z,71.76
2023-02-25T11:53:30.808Z,71.98
2023-02-25T11:56:19.626Z,71.21
2023-02-25T11:58:51.436Z,71.48
2023-02-25T12:01:45.669Z,71.25
2023-02-25T12:04:45.772Z,71.21
2023-02-25T12:07:34.883Z,70.63
2023-02-25T12:10:22.821Z,70.02
2023-02-25T12:13:11.346Z,70.15
2023-02-25T12:15:58.832Z,70.29
2023-02-25T12:19:05.618Z,70.62
2023-02-25T12:21:54.730Z,70.84
2023-02-25T12:25:01.280Z,70.30
2023-02-25T12:27:57.537Z,70.09
2023-02-25T12:30:46.542Z,70.95
2023-02-25T12:33:34.542Z,70.51
2023-02-25T12:36:21.267Z,70.15
2023-02-25T12:38:57.741Z,70.76
2023-02-25T12:41:47.911Z,70.05
2023-02-25T12:44:31.023Z,69.54
2023-02-25T12:47:40.232Z,69.23
2023-02-25T12:50:27.255Z,70.20
2023-02-25T12:53:20.210Z,70.04
2023-02-25T12:56:07.020Z,68.79
2023-02-25T12:58:53.332Z,68.24
2023-02-25T13:01:28.692Z,68.54
2023-02-25T13:04:15.188Z,68.64
2023-02-25T13:06:49.488Z,69.64
2023-02-25T13:09:32.968Z,69.91
2023-02-25T13:12:34.351Z,69.90
2023-02-25T13:15:12.350Z,70.71
2023-02-25T13:17:52.628Z,70.38
2023-02-25T13:20:53.684Z,70.36
2023-02-25T13:23:29.472Z,70.41
2023-02-25T13:26:27.625Z,70.33
2023-02-25T13:28:55.440Z,70.70
2023-02-25T13:31:59.548Z,71.05
2023-02-25T13:34:34.668Z,71.95
2023-02-25T13:37:29.316Z,70.82
2023-02-25T13:40:22.075Z,70.71
2023-02-25T13:43:19.839Z,70.83
2023-02-25T13:46:09.678Z,71.54
2023-02-25T13:48:54.496Z,71.75
2023-02-25T13:51:29.103Z,72.51
2023-02-25T13:54:10.619Z,71.47
2023-02-25T13:56:52.086Z,71.84
2023-02-25T13:59:37.077Z,71.95
2023-02-25T14:02:10.959Z,70.93
2023-02-25T14:05:16.121Z,69.69
2023-02-25T14:07:49.634Z,68.70
2023-02-25T14:10:31.585Z,68.67
2023-02-25T14:13:22.497Z,67.96
2023-02-25T14:15:53.065Z,67.68
2023-02-25T14:18:46.805Z,68.32
2023-02-25T14:22:11.528Z,68.66
2023-02-25T14:25:01.218Z,68.87
2023-02-25T14:27:35.735Z,69.57
2023-02-25T14:30:12.311Z,69.66
2023-02-25T14:32:40.173Z,69.48
2023-02-25T14:35:38.964Z,70.51
2023-02-25T14:38:22.030Z,70.66
2023-02-25T14:41:00.260Z,72.32
2023-02-25T14:43:32.620Z,72.12
2023-02-25T14:46:10.613Z,74.57
2023-02-25T14:48:56.536Z,75.35
2023-02-25T14:51:40.372Z,76.40
2023-02-25T14:54:39.873Z,76.68
2023-02-25T14:57:45.253Z,76.58
2023-02-25T15:00:29.919Z,76.95
2023-02-25T15:03:27.253Z,77.69
2023-02-25T15:06:36.727Z,78.26
2023-02-25T15:09:25.324Z,78.59
2023-02-25T15:12:21.366Z,78.01
2023-02-25T15:15:08.683Z,78.58
2023-02-25T15:17:37.781Z,79.25
2023-02-25T15:20:25.468Z,79.06
2023-02-25T15:23:17.620Z,80.10
2023-02-25T15:25:46.754Z,79.35
2023-02-25T15:28:29.964Z,79.80
2023-02-25T15:31:04.291Z,79.57
2023-02-25T15:33:36.993Z,80.05
2023-02-25T15:36:17.502Z,80.03
2023-02-25T15:38:53.118Z,79.83
2023-02-25T15:41:26.861Z,80.41
2023-02-25T15:43:54.587Z,79.54
2023-02-25T15:46:34.398Z,79.71
2023-02-25T15:49:08.251Z,79.73
2023-02-25T15:51:44.254Z,78.77
2023-02-25T15:54:29.777Z,79.57
2023-02-25T15:56:59.079Z,79.17
2023-02-25T15:59:57.785Z,79.21
2023-02-25T16:02:33.619Z,79.39
2023-02-25T16:05:08.250Z,79.86
2023-02-25T16:07:38.469Z,79.33
2023-02-25T16:10:28.118Z,79.29
2023-02-25T16:12:56.667Z,79.66
2023-02-25T16:15:39.053Z,79.22
2023-02-25T16:18:36.928Z,79.85
2023-02-25T16:21:06.815Z,79.59
2023-02-25T16:23:39.182Z,80.27
2023-02-25T16:26:35.510Z,80.07
2023-02-25T16:29:22.032Z,79.56
2023-02-25T16:32:03.060Z,78.74
2023-02-25T16:34:51.347Z,79.63
2023-02-25T16:37:22.118Z,78.74
2023-02-25T16:39:49.774Z,79.31
2023-02-25T16:42:18.080Z,78.61
2023-02-25T16:44:47.272Z,79.09
2023-02-25T16:47:22.514Z,78.89
2023-02-25T16:49:50.371Z,79.78
2023-02-25T16:52:20.692Z,79.24
2023-02-25T16:54:48.625Z,79.61
2023-02-25T16:57:20.212Z,79.74
2023-02-25T16:59:50.769Z,80.55
2023-02-25T17:02:18.291Z,79.20
2023-02-25T17:04:50.825Z,79.00
2023-02-25T17:07:25.538Z,79.05
2023-02-25T17:10:00.861Z,78.55
2023-02-25T17:12:41.431Z,79.64
2023-02-25T17:15:15.674Z,78.90
2023-02-25T17:17:43.674Z,78.96
2023-02-25T17:20:27.822Z,78.81
2023-02-25T17:22:56.840Z,79.07
2023-02-25T17:25:30.871Z,79.64
2023-02-25T17:28:00.369Z,78.61
2023-02-25T17:30:36.184Z,78.41
2023-02-25T17:33:05.627Z,79.94
2023-02-25T17:35:33.869Z,79.96
2023-02-25T17:38:01.796Z,79.79
2023-02-25T17:40:29.818Z,80.37
2023-02-25T17:43:19.586Z,79.66
2023-02-25T17:45:57.361Z,80.32
2023-02-25T17:48:27.366Z,79.95
2023-02-25T17:51:03.965Z,80.14
2023-02-25T17:53:54.612Z,80.79
2023-02-25T17:56:27.396Z,79.84
2023-02-25T17:59:19.682Z,80.48
2023-02-25T18:01:56.707Z,81.08
2023-02-25T18:04:39.296Z,81.04
2023-02-25T18:07:30.822Z,81.16
2023-02-25T18:10:00.511Z,80.73
2023-02-25T18:12:35.373Z,80.55
2023-02-25T18:15:19.935Z,80.35
2023-02-25T18:17:49.249Z,81.35
2023-02-25T18:20:28.979Z,81.22
2023-02-25T18:22:59.811Z,82.45
2023-02-25T18:25:33.385Z,82.19
2023-02-25T18:28:02.321Z,81.95
2023-02-25T18:30:31.160Z,82.61
2023-02-25T18:33:00.177Z,83.59
2023-02-25T18:35:28.320Z,82.26
2023-02-25T18:37:56.167Z,82.23
2023-02-25T18:40:29.796Z,81.81
2023-02-25T18:42:58.195Z,82.00
2023-02-25T18:45:26.774Z,82.30
2023-02-25T18:47:56.940Z,82.16
2023-02-25T18:50:25.721Z,83.63
2023-02-25T18:52:53.528Z,83.07
2023-02-25T18:55:24.762Z,83.08
2023-02-25T18:57:52.515Z,83.96
2023-02-25T19:00:21.403Z,83.48
2023-02-25T19:02:50.670Z,82.54
2023-02-25T19:05:19.759Z,83.89
2023-02-25T19:07:47.715Z,82.58
2023-02-25T19:10:31.325Z,84.56
2023-02-25T19:13:02.313Z,83.45
2023-02-25T19:15:32.899Z,83.68
2023-02-25T19:18:01.267Z,84.48
2023-02-25T19:20:29.249Z,84.73
2023-02-25T19:22:57.535Z,85.55
2023-02-25T19:25:28.128Z,86.18
2023-02-25T19:27:57.874Z,85.22
2023-02-25T19:30:29.436Z,84.75
2023-02-25T19:33:03.476Z,84.38
2023-02-25T19:35:36.621Z,85.96
2023-02-25T19:38:04.748Z,85.18
2023-02-25T19:40:32.609Z,85.05
2023-02-25T19:43:00.654Z,86.17
2023-02-25T19:45:28.385Z,84.49
2023-02-25T19:47:56.092Z,85.11
2023-02-25T19:50:24.995Z,85.16
2023-02-25T19:52:53.850Z,84.80
2023-02-25T19:55:23.170Z,85.38
2023-02-25T19:57:50.860Z,86.10
2023-02-25T20:00:21.524Z,86.86
2023-02-25T20:02:51.336Z,85.68
2023-02-25T20:05:19.051Z,85.69
2023-02-25T20:07:49.543Z,85.81
2023-02-25T20:10:17.742Z,86.27
2023-02-25T20:12:46.004Z,85.51
2023-02-25T20:15:15.379Z,86.15
2023-02-25T20:17:43.744Z,84.62
2023-02-25T20:20:12.995Z,85.12
2023-02-25T20:22:40.864Z,85.44
2023-02-25T20:25:09.452Z,84.39
2023-02-25T20:27:39.927Z,85.24
2023-02-25T20:30:08.489Z,86.35
2023-02-25T20:32:36.671Z,85.25
2023-02-25T20:35:05.715Z,87.65
2023-02-25T20:37:35.955Z,86.74
2023-02-25T20:40:08.130Z,85.89
2023-02-25T20:42:36.316Z,86.11
2023-02-25T20:45:04.519Z,86.66
2023-02-25T20:47:36.601Z,86.50
2023-02-25T20:50:06.119Z,84.87
2023-02-25T20:52:47.178Z,84.97
2023-02-25T20:55:15.932Z,86.33
2023-02-25T20:57:43.566Z,86.39
2023-02-25T21:00:16.450Z,87.06
2023-02-25T21:02:44.371Z,87.46
2023-02-25T21:05:12.212Z,87.09
2023-02-25T21:07:39.905Z,85.14
2023-02-25T21:10:08.608Z,86.52
2023-02-25T21:12:37.115Z,88.01
2023-02-25T21:15:05.444Z,87.76
2023-02-25T21:17:33.303Z,86.79
2023-02-25T21:20:00.958Z,86.06
2023-02-25T21:22:35.545Z,87.15
2023-02-25T21:25:04.859Z,86.07
2023-02-25T21:27:32.927Z,85.73
2023-02-25T21:30:01.487Z,85.02
2023-02-25T21:32:29.482Z,86.33
2023-02-25T21:34:57.234Z,87.57
2023-02-25T21:37:25.467Z,86.97
2023-02-25T21:39:54.147Z,88.18
2023-02-25T21:42:23.028Z,87.16
2023-02-25T21:44:51.003Z,86.61
2023-02-25T21:47:18.661Z,87.30
2023-02-25T21:49:46.425Z,87.58
2023-02-25T21:52:14.400Z,87.41
2023-02-25T21:54:42.153Z,86.85
2023-02-25T21:57:10.245Z,86.99
2023-02-25T21:59:38.038Z,87.73
2023-02-25T22:02:07.536Z,87.92
2023-02-25T22:04:36.583Z,87.75
2023-02-25T22:07:05.453Z,88.08
2023-02-25T22:09:33.317Z,87.96
2023-02-25T22:12:01.048Z,87.81
2023-02-25T22:14:34.356Z,88.07
2023-02-25T22:17:02.277Z,86.98
2023-02-25T22:19:29.878Z,87.96
2023-02-25T22:21:57.613Z,87.47
2023-02-25T22:24:25.920Z,87.70
2023-02-25T22:26:54.397Z,87.42
2023-02-25T22:29:22.351Z,87.49
2023-02-25T22:31:50.233Z,88.17
2023-02-25T22:34:18.298Z,87.21
2023-02-25T22:36:46.655Z,87.15
2023-02-25T22:39:14.377Z,87.13
2023-02-25T22:41:42.718Z,87.01
2023-02-25T22:44:11.767Z,87.36
2023-02-25T22:46:39.693Z,86.04
2023-02-25T22:49:07.892Z,87.39
2023-02-25T22:51:37.680Z,86.81
2023-02-25T22:54:05.692Z,86.42
2023-02-25T22:56:34.319Z,86.09
2023-02-25T22:59:02.109Z,85.73
2023-02-25T23:01:29.969Z,86.76
2023-02-25T23:03:58.067Z,85.69
2023-02-25T23:06:42.198Z,85.96
2023-02-25T23:09:12.181Z,84.83
2023-02-25T23:11:43.187Z,84.76
2023-02-25T23:14:11.945Z,83.92
2023-02-25T23:16:41.700Z,85.01
2023-02-25T23:19:13.901Z,85.78
2023-02-25T23:21:42.373Z,85.36
2023-02-25T23:24:19.800Z,85.28
2023-02-25T23:26:50.404Z,84.51
2023-02-25T23:29:18.751Z,85.96
2023-02-25T23:31:49.928Z,85.36
2023-02-25T23:34:20.437Z,84.79
2023-02-25T23:36:48.731Z,84.49
2023-02-25T23:39:16.662Z,86.10
2023-02-25T23:41:44.482Z,85.46
2023-02-25T23:44:13.265Z,85.40
2023-02-25T23:46:43.567Z,85.30
2023-02-25T23:49:12.866Z,84.91
2023-02-25T23:51:44.560Z,84.47
2023-02-25T23:54:15.113Z,84.69
2023-02-25T23:56:42.927Z,84.84
2023-02-25T23:59:11.661Z,85.26
